sensor_id;sensor_type;location;lat;lon;timestamp;temperature;humidity
46816;DHT22;32787;53.316;8.670;2023-08-24T00:00:42;16.30;91.60
46816;DHT22;32787;53.316;8.670;2023-08-24T00:03:08;16.30;91.40
46816;DHT22;32787;53.316;8.670;2023-08-24T00:05:34;16.20;91.30
46816;DHT22;32787;53.316;8.670;2023-08-24T00:08:03;16.10;91.60
46816;DHT22;32787;53.316;8.670;2023-08-24T00:10:29;16.10;91.70
46816;DHT22;32787;53.316;8.670;2023-08-24T00:12:54;16.10;91.60
46816;DHT22;32787;53.316;8.670;2023-08-24T00:15:20;16.10;91.70
46816;DHT22;32787;53.316;8.670;2023-08-24T00:17:46;16.10;91.90
46816;DHT22;32787;53.316;8.670;2023-08-24T00:20:11;16.20;91.90
46816;DHT22;32787;53.316;8.670;2023-08-24T00:22:38;16.10;91.80
46816;DHT22;32787;53.316;8.670;2023-08-24T00:25:05;16.20;91.90
46816;DHT22;32787;53.316;8.670;2023-08-24T00:27:32;16.30;91.70
46816;DHT22;32787;53.316;8.670;2023-08-24T00:29:58;16.20;91.50
46816;DHT22;32787;53.316;8.670;2023-08-24T00:32:23;16.10;91.70
46816;DHT22;32787;53.316;8.670;2023-08-24T00:34:49;16.00;91.80
46816;DHT22;32787;53.316;8.670;2023-08-24T00:37:14;16.00;92.00
46816;DHT22;32787;53.316;8.670;2023-08-24T00:39:40;16.00;92.10
46816;DHT22;32787;53.316;8.670;2023-08-24T00:42:06;16.10;92.10
46816;DHT22;32787;53.316;8.670;2023-08-24T00:44:32;16.20;92.00
46816;DHT22;32787;53.316;8.670;2023-08-24T00:46:59;16.20;92.00
46816;DHT22;32787;53.316;8.670;2023-08-24T00:49:25;16.30;91.80
46816;DHT22;32787;53.316;8.670;2023-08-24T00:51:51;16.50;91.40
46816;DHT22;32787;53.316;8.670;2023-08-24T00:54:17;16.40;90.80
46816;DHT22;32787;53.316;8.670;2023-08-24T00:56:43;16.20;91.10
46816;DHT22;32787;53.316;8.670;2023-08-24T00:59:09;16.10;91.40
46816;DHT22;32787;53.316;8.670;2023-08-24T01:01:35;15.90;91.60
46816;DHT22;32787;53.316;8.670;2023-08-24T01:04:01;15.80;91.90
46816;DHT22;32787;53.316;8.670;2023-08-24T01:06:28;15.80;92.00
46816;DHT22;32787;53.316;8.670;2023-08-24T01:08:53;15.70;92.20
46816;DHT22;32787;53.316;8.670;2023-08-24T01:11:33;15.60;92.20
46816;DHT22;32787;53.316;8.670;2023-08-24T01:14:24;15.60;92.40
46816;DHT22;32787;53.316;8.670;2023-08-24T01:16:58;15.70;92.50
46816;DHT22;32787;53.316;8.670;2023-08-24T01:22:02;15.80;92.10
46816;DHT22;32787;53.316;8.670;2023-08-24T01:24:38;15.90;91.80
46816;DHT22;32787;53.316;8.670;2023-08-24T01:27:05;15.90;91.30
46816;DHT22;32787;53.316;8.670;2023-08-24T01:29:31;15.80;91.40
46816;DHT22;32787;53.316;8.670;2023-08-24T01:31:57;15.90;91.50
46816;DHT22;32787;53.316;8.670;2023-08-24T01:34:23;16.00;91.20
46816;DHT22;32787;53.316;8.670;2023-08-24T01:36:48;16.10;90.50
46816;DHT22;32787;53.316;8.670;2023-08-24T01:39:27;15.90;90.50
46816;DHT22;32787;53.316;8.670;2023-08-24T01:41:54;15.80;90.70
46816;DHT22;32787;53.316;8.670;2023-08-24T01:44:21;15.80;90.90
46816;DHT22;32787;53.316;8.670;2023-08-24T01:46:49;15.70;90.80
46816;DHT22;32787;53.316;8.670;2023-08-24T01:49:17;15.70;90.90
46816;DHT22;32787;53.316;8.670;2023-08-24T01:51:44;15.80;90.70
46816;DHT22;32787;53.316;8.670;2023-08-24T01:54:11;15.80;90.20
46816;DHT22;32787;53.316;8.670;2023-08-24T01:56:37;15.60;90.50
46816;DHT22;32787;53.316;8.670;2023-08-24T01:59:03;15.50;90.70
46816;DHT22;32787;53.316;8.670;2023-08-24T02:01:28;15.50;90.40
46816;DHT22;32787;53.316;8.670;2023-08-24T02:03:54;15.30;90.70
46816;DHT22;32787;53.316;8.670;2023-08-24T02:06:20;15.40;90.80
46816;DHT22;32787;53.316;8.670;2023-08-24T02:08:45;15.20;91.10
46816;DHT22;32787;53.316;8.670;2023-08-24T02:11:11;15.30;91.20
46816;DHT22;32787;53.316;8.670;2023-08-24T02:13:36;15.30;90.60
46816;DHT22;32787;53.316;8.670;2023-08-24T02:16:04;15.10;91.20
46816;DHT22;32787;53.316;8.670;2023-08-24T02:18:30;15.10;91.30
46816;DHT22;32787;53.316;8.670;2023-08-24T02:20:55;15.00;91.30
46816;DHT22;32787;53.316;8.670;2023-08-24T02:23:21;14.80;91.40
46816;DHT22;32787;53.316;8.670;2023-08-24T02:25:46;14.70;91.70
46816;DHT22;32787;53.316;8.670;2023-08-24T02:28:12;14.60;91.90
46816;DHT22;32787;53.316;8.670;2023-08-24T02:30:38;14.60;92.10
46816;DHT22;32787;53.316;8.670;2023-08-24T02:33:05;14.50;92.30
46816;DHT22;32787;53.316;8.670;2023-08-24T02:35:31;14.60;92.60
46816;DHT22;32787;53.316;8.670;2023-08-24T02:37:56;14.80;92.60
46816;DHT22;32787;53.316;8.670;2023-08-24T02:40:23;15.00;92.00
46816;DHT22;32787;53.316;8.670;2023-08-24T02:42:48;15.20;91.00
46816;DHT22;32787;53.316;8.670;2023-08-24T02:45:14;15.20;91.00
46816;DHT22;32787;53.316;8.670;2023-08-24T02:47:39;15.20;90.90
46816;DHT22;32787;53.316;8.670;2023-08-24T02:50:06;15.30;90.70
46816;DHT22;32787;53.316;8.670;2023-08-24T02:52:32;15.30;90.60
46816;DHT22;32787;53.316;8.670;2023-08-24T02:54:58;15.30;90.60
46816;DHT22;32787;53.316;8.670;2023-08-24T02:57:23;15.30;90.30
46816;DHT22;32787;53.316;8.670;2023-08-24T02:59:49;15.30;90.20
46816;DHT22;32787;53.316;8.670;2023-08-24T03:02:15;15.40;90.10
46816;DHT22;32787;53.316;8.670;2023-08-24T03:04:40;15.10;90.30
46816;DHT22;32787;53.316;8.670;2023-08-24T03:07:06;14.80;90.90
46816;DHT22;32787;53.316;8.670;2023-08-24T03:09:36;15.00;91.30
46816;DHT22;32787;53.316;8.670;2023-08-24T03:12:02;15.10;91.10
46816;DHT22;32787;53.316;8.670;2023-08-24T03:14:28;15.00;90.90
46816;DHT22;32787;53.316;8.670;2023-08-24T03:16:54;14.80;91.40
46816;DHT22;32787;53.316;8.670;2023-08-24T03:19:19;15.00;91.70
46816;DHT22;32787;53.316;8.670;2023-08-24T03:21:45;15.10;91.50
46816;DHT22;32787;53.316;8.670;2023-08-24T03:24:11;15.20;90.90
46816;DHT22;32787;53.316;8.670;2023-08-24T03:26:36;15.20;90.90
46816;DHT22;32787;53.316;8.670;2023-08-24T03:29:02;15.00;90.90
46816;DHT22;32787;53.316;8.670;2023-08-24T03:31:28;14.90;91.30
46816;DHT22;32787;53.316;8.670;2023-08-24T03:33:54;14.80;91.60
46816;DHT22;32787;53.316;8.670;2023-08-24T03:36:20;14.70;91.90
46816;DHT22;32787;53.316;8.670;2023-08-24T03:38:46;14.70;92.10
46816;DHT22;32787;53.316;8.670;2023-08-24T03:41:12;14.70;92.20
46816;DHT22;32787;53.316;8.670;2023-08-24T03:43:37;14.60;92.40
46816;DHT22;32787;53.316;8.670;2023-08-24T03:46:06;14.60;92.60
46816;DHT22;32787;53.316;8.670;2023-08-24T03:48:32;14.80;92.50
46816;DHT22;32787;53.316;8.670;2023-08-24T03:50:58;14.90;92.20
46816;DHT22;32787;53.316;8.670;2023-08-24T03:53:24;14.80;92.20
46816;DHT22;32787;53.316;8.670;2023-08-24T03:55:54;14.90;92.20
46816;DHT22;32787;53.316;8.670;2023-08-24T03:58:20;15.00;91.90
46816;DHT22;32787;53.316;8.670;2023-08-24T04:00:46;15.20;91.50
46816;DHT22;32787;53.316;8.670;2023-08-24T04:03:12;15.20;91.30
46816;DHT22;32787;53.316;8.670;2023-08-24T04:05:38;15.30;91.20
46816;DHT22;32787;53.316;8.670;2023-08-24T04:08:03;15.30;91.00
46816;DHT22;32787;53.316;8.670;2023-08-24T04:10:30;15.30;90.90
46816;DHT22;32787;53.316;8.670;2023-08-24T04:12:55;15.10;91.20
46816;DHT22;32787;53.316;8.670;2023-08-24T04:15:21;15.00;91.20
46816;DHT22;32787;53.316;8.670;2023-08-24T04:17:48;14.80;91.40
46816;DHT22;32787;53.316;8.670;2023-08-24T04:20:14;14.80;91.80
46816;DHT22;32787;53.316;8.670;2023-08-24T04:22:39;14.70;91.60
46816;DHT22;32787;53.316;8.670;2023-08-24T04:25:05;14.60;91.80
46816;DHT22;32787;53.316;8.670;2023-08-24T04:27:31;14.40;92.00
46816;DHT22;32787;53.316;8.670;2023-08-24T04:29:58;14.50;92.20
46816;DHT22;32787;53.316;8.670;2023-08-24T04:32:23;14.40;92.20
46816;DHT22;32787;53.316;8.670;2023-08-24T04:34:49;14.30;92.40
46816;DHT22;32787;53.316;8.670;2023-08-24T04:37:15;14.30;92.60
46816;DHT22;32787;53.316;8.670;2023-08-24T04:39:40;14.30;92.80
46816;DHT22;32787;53.316;8.670;2023-08-24T04:42:06;14.30;92.70
46816;DHT22;32787;53.316;8.670;2023-08-24T04:44:32;14.50;92.70
46816;DHT22;32787;53.316;8.670;2023-08-24T04:46:58;14.70;92.50
46816;DHT22;32787;53.316;8.670;2023-08-24T04:49:24;14.80;92.20
46816;DHT22;32787;53.316;8.670;2023-08-24T04:51:49;14.80;91.80
46816;DHT22;32787;53.316;8.670;2023-08-24T04:54:15;14.70;92.00
46816;DHT22;32787;53.316;8.670;2023-08-24T04:56:41;14.50;92.30
46816;DHT22;32787;53.316;8.670;2023-08-24T04:59:06;14.70;92.40
46816;DHT22;32787;53.316;8.670;2023-08-24T05:01:34;14.80;92.50
46816;DHT22;32787;53.316;8.670;2023-08-24T05:03:59;14.80;92.20
46816;DHT22;32787;53.316;8.670;2023-08-24T05:06:25;14.80;92.30
46816;DHT22;32787;53.316;8.670;2023-08-24T05:08:51;14.80;92.00
46816;DHT22;32787;53.316;8.670;2023-08-24T05:11:18;14.90;92.40
46816;DHT22;32787;53.316;8.670;2023-08-24T05:13:44;15.10;92.40
46816;DHT22;32787;53.316;8.670;2023-08-24T05:16:10;15.10;92.30
46816;DHT22;32787;53.316;8.670;2023-08-24T05:18:36;15.00;92.30
46816;DHT22;32787;53.316;8.670;2023-08-24T05:21:03;15.00;92.50
46816;DHT22;32787;53.316;8.670;2023-08-24T05:23:29;15.00;92.70
46816;DHT22;32787;53.316;8.670;2023-08-24T05:25:57;15.20;92.70
46816;DHT22;32787;53.316;8.670;2023-08-24T05:28:24;15.20;92.70
46816;DHT22;32787;53.316;8.670;2023-08-24T05:30:54;15.30;92.60
46816;DHT22;32787;53.316;8.670;2023-08-24T05:33:20;15.40;92.60
46816;DHT22;32787;53.316;8.670;2023-08-24T05:35:47;15.40;92.80
46816;DHT22;32787;53.316;8.670;2023-08-24T05:38:13;15.50;92.80
46816;DHT22;32787;53.316;8.670;2023-08-24T05:40:39;15.70;92.80
46816;DHT22;32787;53.316;8.670;2023-08-24T05:43:06;15.80;92.60
46816;DHT22;32787;53.316;8.670;2023-08-24T05:45:32;15.80;92.50
46816;DHT22;32787;53.316;8.670;2023-08-24T05:47:58;15.90;92.60
46816;DHT22;32787;53.316;8.670;2023-08-24T05:50:24;16.00;92.60
46816;DHT22;32787;53.316;8.670;2023-08-24T05:52:49;16.10;92.40
46816;DHT22;32787;53.316;8.670;2023-08-24T05:55:15;16.20;92.40
46816;DHT22;32787;53.316;8.670;2023-08-24T05:57:41;16.10;92.60
46816;DHT22;32787;53.316;8.670;2023-08-24T06:00:07;16.10;92.80
46816;DHT22;32787;53.316;8.670;2023-08-24T06:02:36;16.20;92.90
46816;DHT22;32787;53.316;8.670;2023-08-24T06:05:02;16.20;92.90
46816;DHT22;32787;53.316;8.670;2023-08-24T06:07:29;16.20;92.90
46816;DHT22;32787;53.316;8.670;2023-08-24T06:09:56;16.20;92.90
46816;DHT22;32787;53.316;8.670;2023-08-24T06:12:22;16.20;92.90
46816;DHT22;32787;53.316;8.670;2023-08-24T06:14:47;16.30;93.00
46816;DHT22;32787;53.316;8.670;2023-08-24T06:17:13;16.30;92.80
46816;DHT22;32787;53.316;8.670;2023-08-24T06:19:38;16.20;92.90
46816;DHT22;32787;53.316;8.670;2023-08-24T06:22:04;16.20;93.00
46816;DHT22;32787;53.316;8.670;2023-08-24T06:24:30;16.20;93.10
46816;DHT22;32787;53.316;8.670;2023-08-24T06:26:55;16.20;93.30
46816;DHT22;32787;53.316;8.670;2023-08-24T06:29:21;16.20;93.30
46816;DHT22;32787;53.316;8.670;2023-08-24T06:31:47;16.20;93.40
46816;DHT22;32787;53.316;8.670;2023-08-24T06:34:12;16.30;93.40
46816;DHT22;32787;53.316;8.670;2023-08-24T06:36:38;16.30;93.50
46816;DHT22;32787;53.316;8.670;2023-08-24T06:39:03;16.40;93.50
46816;DHT22;32787;53.316;8.670;2023-08-24T06:41:33;16.50;93.50
46816;DHT22;32787;53.316;8.670;2023-08-24T06:43:59;16.50;93.30
46816;DHT22;32787;53.316;8.670;2023-08-24T06:46:25;16.60;93.40
46816;DHT22;32787;53.316;8.670;2023-08-24T06:48:51;16.70;93.40
46816;DHT22;32787;53.316;8.670;2023-08-24T06:51:16;16.80;93.30
46816;DHT22;32787;53.316;8.670;2023-08-24T06:53:42;16.80;93.30
46816;DHT22;32787;53.316;8.670;2023-08-24T06:56:08;16.90;93.10
46816;DHT22;32787;53.316;8.670;2023-08-24T06:58:34;17.00;93.00
46816;DHT22;32787;53.316;8.670;2023-08-24T07:01:00;17.20;92.80
46816;DHT22;32787;53.316;8.670;2023-08-24T07:03:26;17.30;92.40
46816;DHT22;32787;53.316;8.670;2023-08-24T07:05:52;17.40;91.80
46816;DHT22;32787;53.316;8.670;2023-08-24T07:08:18;17.40;91.50
46816;DHT22;32787;53.316;8.670;2023-08-24T07:10:43;17.50;91.40
46816;DHT22;32787;53.316;8.670;2023-08-24T07:13:09;17.60;91.00
46816;DHT22;32787;53.316;8.670;2023-08-24T07:15:35;17.80;90.20
46816;DHT22;32787;53.316;8.670;2023-08-24T07:18:04;17.80;89.30
46816;DHT22;32787;53.316;8.670;2023-08-24T07:20:32;17.90;89.30
46816;DHT22;32787;53.316;8.670;2023-08-24T07:22:58;17.90;88.70
46816;DHT22;32787;53.316;8.670;2023-08-24T07:25:24;18.00;88.40
46816;DHT22;32787;53.316;8.670;2023-08-24T07:27:49;18.20;88.80
46816;DHT22;32787;53.316;8.670;2023-08-24T07:30:15;18.30;88.90
46816;DHT22;32787;53.316;8.670;2023-08-24T07:32:41;18.30;87.70
46816;DHT22;32787;53.316;8.670;2023-08-24T07:35:07;18.30;87.80
46816;DHT22;32787;53.316;8.670;2023-08-24T07:37:33;18.30;88.10
46816;DHT22;32787;53.316;8.670;2023-08-24T07:39:59;18.50;87.00
46816;DHT22;32787;53.316;8.670;2023-08-24T07:42:24;18.40;87.10
46816;DHT22;32787;53.316;8.670;2023-08-24T07:44:50;18.40;86.90
46816;DHT22;32787;53.316;8.670;2023-08-24T07:47:16;18.30;87.20
46816;DHT22;32787;53.316;8.670;2023-08-24T07:49:42;18.40;88.10
46816;DHT22;32787;53.316;8.670;2023-08-24T07:52:13;18.40;87.80
46816;DHT22;32787;53.316;8.670;2023-08-24T07:54:39;18.60;87.10
46816;DHT22;32787;53.316;8.670;2023-08-24T07:57:05;18.60;86.90
46816;DHT22;32787;53.316;8.670;2023-08-24T07:59:31;18.70;85.90
46816;DHT22;32787;53.316;8.670;2023-08-24T08:01:57;18.80;85.20
46816;DHT22;32787;53.316;8.670;2023-08-24T08:04:22;19.00;85.20
46816;DHT22;32787;53.316;8.670;2023-08-24T08:06:48;19.00;85.20
46816;DHT22;32787;53.316;8.670;2023-08-24T08:09:13;19.10;85.40
46816;DHT22;32787;53.316;8.670;2023-08-24T08:11:39;19.20;85.00
46816;DHT22;32787;53.316;8.670;2023-08-24T08:14:05;19.30;85.20
46816;DHT22;32787;53.316;8.670;2023-08-24T08:16:30;19.20;84.00
46816;DHT22;32787;53.316;8.670;2023-08-24T08:18:56;19.20;84.00
46816;DHT22;32787;53.316;8.670;2023-08-24T08:21:22;19.20;83.60
46816;DHT22;32787;53.316;8.670;2023-08-24T08:23:49;19.30;83.50
46816;DHT22;32787;53.316;8.670;2023-08-24T08:26:15;19.30;83.30
46816;DHT22;32787;53.316;8.670;2023-08-24T08:28:41;19.30;82.30
46816;DHT22;32787;53.316;8.670;2023-08-24T08:31:06;19.50;82.70
46816;DHT22;32787;53.316;8.670;2023-08-24T08:33:32;19.50;82.40
46816;DHT22;32787;53.316;8.670;2023-08-24T08:35:58;19.60;82.70
46816;DHT22;32787;53.316;8.670;2023-08-24T08:38:23;19.70;82.40
46816;DHT22;32787;53.316;8.670;2023-08-24T08:41:02;19.70;83.00
46816;DHT22;32787;53.316;8.670;2023-08-24T08:43:28;19.70;82.60
46816;DHT22;32787;53.316;8.670;2023-08-24T08:45:56;19.80;81.70
46816;DHT22;32787;53.316;8.670;2023-08-24T08:48:22;20.10;81.10
46816;DHT22;32787;53.316;8.670;2023-08-24T08:50:52;20.10;80.20
46816;DHT22;32787;53.316;8.670;2023-08-24T08:53:22;20.30;80.20
46816;DHT22;32787;53.316;8.670;2023-08-24T08:55:54;20.20;78.30
46816;DHT22;32787;53.316;8.670;2023-08-24T08:58:20;20.60;77.70
46816;DHT22;32787;53.316;8.670;2023-08-24T09:00:47;20.70;77.70
46816;DHT22;32787;53.316;8.670;2023-08-24T09:03:15;20.70;78.90
46816;DHT22;32787;53.316;8.670;2023-08-24T09:05:42;20.80;78.70
46816;DHT22;32787;53.316;8.670;2023-08-24T09:08:09;20.80;79.00
46816;DHT22;32787;53.316;8.670;2023-08-24T09:10:34;20.70;78.60
46816;DHT22;32787;53.316;8.670;2023-08-24T09:13:00;20.70;78.00
46816;DHT22;32787;53.316;8.670;2023-08-24T09:15:26;20.60;78.70
46816;DHT22;32787;53.316;8.670;2023-08-24T09:17:53;20.70;79.30
46816;DHT22;32787;53.316;8.670;2023-08-24T09:20:20;20.90;78.60
46816;DHT22;32787;53.316;8.670;2023-08-24T09:22:46;21.30;76.90
46816;DHT22;32787;53.316;8.670;2023-08-24T09:25:11;21.40;75.50
46816;DHT22;32787;53.316;8.670;2023-08-24T09:27:37;21.10;76.30
46816;DHT22;32787;53.316;8.670;2023-08-24T09:30:03;21.00;77.60
46816;DHT22;32787;53.316;8.670;2023-08-24T09:32:31;21.00;77.10
46816;DHT22;32787;53.316;8.670;2023-08-24T09:35:03;21.00;76.70
46816;DHT22;32787;53.316;8.670;2023-08-24T09:37:34;21.10;76.90
46816;DHT22;32787;53.316;8.670;2023-08-24T09:40:04;21.10;75.50
46816;DHT22;32787;53.316;8.670;2023-08-24T09:42:43;21.30;75.40
46816;DHT22;32787;53.316;8.670;2023-08-24T09:45:12;21.40;75.10
46816;DHT22;32787;53.316;8.670;2023-08-24T09:47:38;21.30;76.30
46816;DHT22;32787;53.316;8.670;2023-08-24T09:50:04;21.50;74.90
46816;DHT22;32787;53.316;8.670;2023-08-24T09:52:33;21.60;75.00
46816;DHT22;32787;53.316;8.670;2023-08-24T09:55:04;21.50;75.50
46816;DHT22;32787;53.316;8.670;2023-08-24T09:57:36;21.30;76.10
46816;DHT22;32787;53.316;8.670;2023-08-24T10:00:07;21.40;76.80
46816;DHT22;32787;53.316;8.670;2023-08-24T10:02:38;21.70;75.30
46816;DHT22;32787;53.316;8.670;2023-08-24T10:05:10;21.80;76.40
46816;DHT22;32787;53.316;8.670;2023-08-24T10:07:37;21.90;75.50
46816;DHT22;32787;53.316;8.670;2023-08-24T10:10:04;21.90;75.00
46816;DHT22;32787;53.316;8.670;2023-08-24T10:12:38;21.90;76.60
46816;DHT22;32787;53.316;8.670;2023-08-24T10:15:07;22.00;76.40
46816;DHT22;32787;53.316;8.670;2023-08-24T10:17:35;22.00;76.50
46816;DHT22;32787;53.316;8.670;2023-08-24T10:20:02;22.30;75.40
46816;DHT22;32787;53.316;8.670;2023-08-24T10:22:33;22.30;75.20
46816;DHT22;32787;53.316;8.670;2023-08-24T10:24:59;22.20;75.10
46816;DHT22;32787;53.316;8.670;2023-08-24T10:27:27;22.20;74.90
46816;DHT22;32787;53.316;8.670;2023-08-24T10:29:53;22.00;74.60
46816;DHT22;32787;53.316;8.670;2023-08-24T10:32:22;22.30;75.50
46816;DHT22;32787;53.316;8.670;2023-08-24T10:34:50;22.40;75.80
46816;DHT22;32787;53.316;8.670;2023-08-24T10:37:15;22.50;75.10
46816;DHT22;32787;53.316;8.670;2023-08-24T10:39:45;22.70;73.60
46816;DHT22;32787;53.316;8.670;2023-08-24T10:42:14;22.70;74.70
46816;DHT22;32787;53.316;8.670;2023-08-24T10:44:46;22.70;75.50
46816;DHT22;32787;53.316;8.670;2023-08-24T10:47:19;22.60;75.30
46816;DHT22;32787;53.316;8.670;2023-08-24T10:50:05;22.60;75.30
46816;DHT22;32787;53.316;8.670;2023-08-24T10:52:32;22.60;74.20
46816;DHT22;32787;53.316;8.670;2023-08-24T10:55:01;22.60;74.80
46816;DHT22;32787;53.316;8.670;2023-08-24T10:57:35;22.70;74.30
46816;DHT22;32787;53.316;8.670;2023-08-24T11:00:09;22.80;73.60
46816;DHT22;32787;53.316;8.670;2023-08-24T11:02:50;22.80;74.20
46816;DHT22;32787;53.316;8.670;2023-08-24T11:10:23;22.90;73.80
46816;DHT22;32787;53.316;8.670;2023-08-24T11:13:23;23.20;73.70
46816;DHT22;32787;53.316;8.670;2023-08-24T11:15:49;23.50;74.00
46816;DHT22;32787;53.316;8.670;2023-08-24T11:18:27;23.40;70.90
46816;DHT22;32787;53.316;8.670;2023-08-24T11:21:04;23.50;71.40
46816;DHT22;32787;53.316;8.670;2023-08-24T11:23:30;23.60;71.10
46816;DHT22;32787;53.316;8.670;2023-08-24T11:25:58;23.50;71.00
46816;DHT22;32787;53.316;8.670;2023-08-24T11:28:28;23.70;71.60
46816;DHT22;32787;53.316;8.670;2023-08-24T11:30:55;23.70;71.40
46816;DHT22;32787;53.316;8.670;2023-08-24T11:35:55;23.70;70.90
46816;DHT22;32787;53.316;8.670;2023-08-24T11:38:21;23.60;71.70
46816;DHT22;32787;53.316;8.670;2023-08-24T11:40:46;23.60;73.10
46816;DHT22;32787;53.316;8.670;2023-08-24T11:43:12;23.50;72.00
46816;DHT22;32787;53.316;8.670;2023-08-24T11:45:38;23.50;73.00
46816;DHT22;32787;53.316;8.670;2023-08-24T11:48:06;23.60;72.20
46816;DHT22;32787;53.316;8.670;2023-08-24T11:50:33;23.50;72.80
46816;DHT22;32787;53.316;8.670;2023-08-24T11:53:01;23.50;71.60
46816;DHT22;32787;53.316;8.670;2023-08-24T11:55:28;23.50;72.40
46816;DHT22;32787;53.316;8.670;2023-08-24T11:57:53;23.50;72.80
46816;DHT22;32787;53.316;8.670;2023-08-24T12:00:22;23.50;72.00
46816;DHT22;32787;53.316;8.670;2023-08-24T12:02:49;23.60;70.70
46816;DHT22;32787;53.316;8.670;2023-08-24T12:05:25;23.60;69.90
46816;DHT22;32787;53.316;8.670;2023-08-24T12:07:52;23.70;70.60
46816;DHT22;32787;53.316;8.670;2023-08-24T12:10:18;23.90;70.30
46816;DHT22;32787;53.316;8.670;2023-08-24T12:12:44;24.00;68.60
46816;DHT22;32787;53.316;8.670;2023-08-24T12:15:18;23.90;68.90
46816;DHT22;32787;53.316;8.670;2023-08-24T12:17:46;24.10;69.40
46816;DHT22;32787;53.316;8.670;2023-08-24T12:20:22;24.10;69.40
46816;DHT22;32787;53.316;8.670;2023-08-24T12:22:55;24.10;68.80
46816;DHT22;32787;53.316;8.670;2023-08-24T12:25:24;24.20;69.30
46816;DHT22;32787;53.316;8.670;2023-08-24T12:28:07;24.40;70.20
46816;DHT22;32787;53.316;8.670;2023-08-24T12:30:43;24.40;69.60
46816;DHT22;32787;53.316;8.670;2023-08-24T12:33:17;24.40;68.00
46816;DHT22;32787;53.316;8.670;2023-08-24T12:35:45;24.20;69.30
46816;DHT22;32787;53.316;8.670;2023-08-24T12:38:11;24.30;69.80
46816;DHT22;32787;53.316;8.670;2023-08-24T12:40:37;24.10;67.80
46816;DHT22;32787;53.316;8.670;2023-08-24T12:43:03;24.00;68.10
46816;DHT22;32787;53.316;8.670;2023-08-24T12:45:29;24.00;68.00
46816;DHT22;32787;53.316;8.670;2023-08-24T12:47:54;24.00;67.30
46816;DHT22;32787;53.316;8.670;2023-08-24T12:50:20;23.90;68.30
46816;DHT22;32787;53.316;8.670;2023-08-24T12:52:45;24.10;68.70
46816;DHT22;32787;53.316;8.670;2023-08-24T12:55:11;24.20;70.60
46816;DHT22;32787;53.316;8.670;2023-08-24T12:57:36;24.20;70.30
46816;DHT22;32787;53.316;8.670;2023-08-24T13:00:02;24.40;69.20
46816;DHT22;32787;53.316;8.670;2023-08-24T13:02:28;24.20;69.50
46816;DHT22;32787;53.316;8.670;2023-08-24T13:04:54;24.20;69.40
46816;DHT22;32787;53.316;8.670;2023-08-24T13:07:20;24.10;68.30
46816;DHT22;32787;53.316;8.670;2023-08-24T13:09:46;24.00;68.40
46816;DHT22;32787;53.316;8.670;2023-08-24T13:12:12;24.10;69.10
46816;DHT22;32787;53.316;8.670;2023-08-24T13:14:37;23.90;67.80
46816;DHT22;32787;53.316;8.670;2023-08-24T13:17:03;24.00;69.80
46816;DHT22;32787;53.316;8.670;2023-08-24T13:19:29;24.00;69.10
46816;DHT22;32787;53.316;8.670;2023-08-24T13:21:54;24.20;70.80
46816;DHT22;32787;53.316;8.670;2023-08-24T13:24:20;24.10;70.00
46816;DHT22;32787;53.316;8.670;2023-08-24T13:26:46;24.10;70.40
46816;DHT22;32787;53.316;8.670;2023-08-24T13:29:11;24.00;71.90
46816;DHT22;32787;53.316;8.670;2023-08-24T13:31:37;24.00;71.30
46816;DHT22;32787;53.316;8.670;2023-08-24T13:34:02;24.20;69.50
46816;DHT22;32787;53.316;8.670;2023-08-24T13:36:30;24.00;70.60
46816;DHT22;32787;53.316;8.670;2023-08-24T13:38:55;23.90;70.70
46816;DHT22;32787;53.316;8.670;2023-08-24T13:41:21;23.80;70.80
46816;DHT22;32787;53.316;8.670;2023-08-24T13:43:46;24.00;71.20
46816;DHT22;32787;53.316;8.670;2023-08-24T13:46:12;24.00;72.00
46816;DHT22;32787;53.316;8.670;2023-08-24T13:48:38;23.90;71.20
46816;DHT22;32787;53.316;8.670;2023-08-24T13:51:03;23.90;70.80
46816;DHT22;32787;53.316;8.670;2023-08-24T13:53:29;23.90;71.50
46816;DHT22;32787;53.316;8.670;2023-08-24T13:55:54;23.80;71.40
46816;DHT22;32787;53.316;8.670;2023-08-24T13:58:20;23.90;72.20
46816;DHT22;32787;53.316;8.670;2023-08-24T14:00:46;23.90;73.10
46816;DHT22;32787;53.316;8.670;2023-08-24T14:03:11;23.80;72.80
46816;DHT22;32787;53.316;8.670;2023-08-24T14:05:40;23.80;72.30
46816;DHT22;32787;53.316;8.670;2023-08-24T14:08:06;23.70;72.80
46816;DHT22;32787;53.316;8.670;2023-08-24T14:10:33;23.80;72.00
46816;DHT22;32787;53.316;8.670;2023-08-24T14:12:58;23.90;72.70
46816;DHT22;32787;53.316;8.670;2023-08-24T14:15:24;23.80;72.50
46816;DHT22;32787;53.316;8.670;2023-08-24T14:17:50;23.80;72.80
46816;DHT22;32787;53.316;8.670;2023-08-24T14:20:15;24.00;72.50
46816;DHT22;32787;53.316;8.670;2023-08-24T14:22:41;24.00;72.20
46816;DHT22;32787;53.316;8.670;2023-08-24T14:25:07;24.60;71.40
46816;DHT22;32787;53.316;8.670;2023-08-24T14:27:32;25.30;68.40
46816;DHT22;32787;53.316;8.670;2023-08-24T14:29:58;25.70;67.40
46816;DHT22;32787;53.316;8.670;2023-08-24T14:32:23;25.60;66.20
46816;DHT22;32787;53.316;8.670;2023-08-24T14:34:49;25.40;68.10
46816;DHT22;32787;53.316;8.670;2023-08-24T14:37:15;25.00;68.60
46816;DHT22;32787;53.316;8.670;2023-08-24T14:39:40;24.60;68.50
46816;DHT22;32787;53.316;8.670;2023-08-24T14:42:06;24.40;70.40
46816;DHT22;32787;53.316;8.670;2023-08-24T14:44:32;24.30;70.50
46816;DHT22;32787;53.316;8.670;2023-08-24T14:46:58;24.10;71.40
46816;DHT22;32787;53.316;8.670;2023-08-24T14:49:23;23.90;71.40
46816;DHT22;32787;53.316;8.670;2023-08-24T14:51:49;24.00;72.10
46816;DHT22;32787;53.316;8.670;2023-08-24T14:54:14;23.90;72.60
46816;DHT22;32787;53.316;8.670;2023-08-24T14:56:40;23.80;73.10
46816;DHT22;32787;53.316;8.670;2023-08-24T14:59:06;23.90;73.70
46816;DHT22;32787;53.316;8.670;2023-08-24T15:01:32;23.80;74.30
46816;DHT22;32787;53.316;8.670;2023-08-24T15:03:57;23.80;75.80
46816;DHT22;32787;53.316;8.670;2023-08-24T15:06:23;23.70;76.00
46816;DHT22;32787;53.316;8.670;2023-08-24T15:08:49;23.60;76.70
46816;DHT22;32787;53.316;8.670;2023-08-24T15:11:15;23.50;77.50
46816;DHT22;32787;53.316;8.670;2023-08-24T15:13:43;23.50;77.80
46816;DHT22;32787;53.316;8.670;2023-08-24T15:16:08;23.40;78.40
46816;DHT22;32787;53.316;8.670;2023-08-24T15:18:35;23.30;78.70
46816;DHT22;32787;53.316;8.670;2023-08-24T15:21:02;23.30;79.40
46816;DHT22;32787;53.316;8.670;2023-08-24T15:23:30;23.40;81.60
46816;DHT22;32787;53.316;8.670;2023-08-24T15:26:00;23.30;82.50
46816;DHT22;32787;53.316;8.670;2023-08-24T15:28:26;23.20;83.10
46816;DHT22;32787;53.316;8.670;2023-08-24T15:30:52;23.10;83.30
46816;DHT22;32787;53.316;8.670;2023-08-24T15:33:19;23.00;83.90
46816;DHT22;32787;53.316;8.670;2023-08-24T15:35:45;22.90;84.20
46816;DHT22;32787;53.316;8.670;2023-08-24T15:38:10;23.00;84.50